Time,TemperatureF,DewpointF,PressureIn,WindDirection,WindDirectionDegrees,WindSpeedMPH,WindSpeedGustMPH,Humidity,HourlyPrecipIn,Conditions,Clouds,dailyrainin,SoftwareType,DateUTC
2013-08-19 00:07:00,65.6,61.0,30.09,ESE,117,0.0,1.0,85,0.00,,,0.00,weatherlink.com 1.10,2013-08-19 04:07:00,
2013-08-19 00:22:00,65.2,61.0,30.09,ESE,117,0.0,1.0,85,0.00,,,0.00,weatherlink.com 1.10,2013-08-19 04:22:00,
2013-08-19 00:37:00,65.0,61.0,30.09,SE,134,1.0,1.0,86,0.00,,,0.00,weatherlink.com 1.10,2013-08-19 04:37:00,
2013-08-19 00:52:00,65.1,60.0,30.09,ESE,118,2.0,2.0,84,0.00,,,0.00,weatherlink.com 1.10,2013-08-19 04:52:00,
2013-08-19 01:07:00,65.1,60.0,30.09,ESE,122,1.0,3.0,83,0.00,,,0.00,weatherlink.com 1.10,2013-08-19 05:07:00,
2013-08-19 01:22:00,65.1,60.0,30.09,SE,139,1.0,1.0,82,0.00,,,0.00,weatherlink.com 1.10,2013-08-19 05:22:00,
2013-08-19 01:38:00,64.7,59.0,30.08,SSE,148,0.0,1.0,82,0.00,,,0.00,weatherlink.com 1.10,2013-08-19 05:38:00,
2013-08-19 01:53:00,64.2,59.0,30.08,SSE,148,0.0,0.0,83,0.00,,,0.00,weatherlink.com 1.10,2013-08-19 05:53:00,
2013-08-19 02:08:00,63.7,59.0,30.08,SSE,148,0.0,1.0,85,0.00,,,0.00,weatherlink.com 1.10,2013-08-19 06:08:00,
2013-08-19 02:23:00,63.0,59.0,30.08,SSE,148,0.0,0.0,86,0.00,,,0.00,weatherlink.com 1.10,2013-08-19 06:23:00,
2013-08-19 02:38:00,62.9,59.0,30.08,SSE,148,0.0,1.0,87,0.00,,,0.00,weatherlink.com 1.10,2013-08-19 06:38:00,
2013-08-19 02:53:00,62.4,59.0,30.08,SSE,148,0.0,0.0,88,0.00,,,0.00,weatherlink.com 1.10,2013-08-19 06:53:00,
2013-08-19 03:08:00,61.8,59.0,30.08,SSE,148,0.0,0.0,89,0.00,,,0.00,weatherlink.com 1.10,2013-08-19 07:08:00,
2013-08-19 03:23:00,61.6,58.0,30.08,SE,126,0.0,1.0,89,0.00,,,0.00,weatherlink.com 1.10,2013-08-19 07:23:00,
2013-08-19 03:38:00,61.6,58.0,30.07,ESE,117,0.0,1.0,89,0.00,,,0.00,weatherlink.com 1.10,2013-08-19 07:38:00,
2013-08-19 03:53:00,61.5,58.0,30.07,SE,137,0.0,1.0,89,0.00,,,0.00,weatherlink.com 1.10,2013-08-19 07:53:00,
2013-08-19 04:08:00,61.0,58.0,30.07,ESE,118,1.0,1.0,89,0.00,,,0.00,weatherlink.com 1.10,2013-08-19 08:08:00,
2013-08-19 04:23:00,61.0,58.0,30.07,ESE,117,0.0,1.0,89,0.00,,,0.00,weatherlink.com 1.10,2013-08-19 08:23:00,
2013-08-19 04:38:00,61.2,58.0,30.07,ESE,122,0.0,1.0,89,0.00,,,0.00,weatherlink.com 1.10,2013-08-19 08:38:00,
2013-08-19 04:53:00,61.0,58.0,30.07,ESE,122,0.0,1.0,89,0.00,,,0.00,weatherlink.com 1.10,2013-08-19 08:53:00,
2013-08-19 05:08:00,60.8,57.0,30.08,SSE,147,1.0,3.0,88,0.00,,,0.00,weatherlink.com 1.10,2013-08-19 09:08:00,
2013-08-19 05:23:00,60.6,57.0,30.08,SE,146,0.0,2.0,88,0.00,,,0.00,weatherlink.com 1.10,2013-08-19 09:23:00,
2013-08-19 05:38:00,60.6,57.0,30.08,ESE,122,1.0,2.0,88,0.00,,,0.00,weatherlink.com 1.10,2013-08-19 09:38:00,
2013-08-19 05:53:00,60.6,57.0,30.08,ESE,119,1.0,2.0,87,0.00,,,0.00,weatherlink.com 1.10,2013-08-19 09:53:00,
2013-08-19 06:08:00,60.7,57.0,30.08,SSE,148,2.0,3.0,87,0.00,,,0.00,weatherlink.com 1.10,2013-08-19 10:08:00,
2013-08-19 06:24:00,60.7,57.0,30.08,SE,141,1.0,3.0,86,0.00,,,0.00,weatherlink.com 1.10,2013-08-19 10:24:00,
2013-08-19 06:38:00,60.7,57.0,30.09,SSE,165,2.0,2.0,86,0.00,,,0.00,weatherlink.com 1.10,2013-08-19 10:38:00,
2013-08-19 06:53:00,60.5,57.0,30.09,SE,129,1.0,2.0,87,0.00,,,0.00,weatherlink.com 1.10,2013-08-19 10:53:00,
2013-08-19 07:08:00,60.5,57.0,30.09,SE,141,0.0,1.0,87,0.00,,,0.00,weatherlink.com 1.10,2013-08-19 11:08:00,
2013-08-19 07:23:00,60.3,57.0,30.09,SE,133,1.0,2.0,87,0.00,,,0.00,weatherlink.com 1.10,2013-08-19 11:23:00,
2013-08-19 07:38:00,60.7,57.0,30.09,SE,139,1.0,2.0,87,0.00,,,0.00,weatherlink.com 1.10,2013-08-19 11:38:00,
2013-08-19 07:53:00,61.2,57.0,30.10,ESE,111,1.0,2.0,87,0.00,,,0.00,weatherlink.com 1.10,2013-08-19 11:53:00,
2013-08-19 08:08:00,62.6,58.0,30.09,SE,136,2.0,2.0,84,0.00,,,0.00,weatherlink.com 1.10,2013-08-19 12:08:00,
2013-08-19 08:23:00,63.3,58.0,30.10,SE,125,2.0,2.0,83,0.00,,,0.00,weatherlink.com 1.10,2013-08-19 12:23:00,
2013-08-19 08:38:00,63.9,58.0,30.10,ESE,114,1.0,3.0,82,0.00,,,0.00,weatherlink.com 1.10,2013-08-19 12:38:00,
2013-08-19 08:53:00,66.3,59.0,30.10,SSW,195,1.0,3.0,78,0.00,,,0.00,weatherlink.com 1.10,2013-08-19 12:53:00,
2013-08-19 09:08:00,67.7,60.0,30.11,SW,232,1.0,3.0,76,0.00,,,0.00,weatherlink.com 1.10,2013-08-19 13:08:00,
2013-08-19 09:23:00,69.9,61.0,30.10,SSW,193,4.0,4.0,73,0.00,,,0.00,weatherlink.com 1.10,2013-08-19 13:23:00,
2013-08-19 09:38:00,71.3,62.0,30.11,SSW,212,3.0,4.0,72,0.00,,,0.00,weatherlink.com 1.10,2013-08-19 13:38:00,
2013-08-19 09:53:00,72.0,61.0,30.11,SSW,203,0.0,3.0,69,0.00,,,0.00,weatherlink.com 1.10,2013-08-19 13:53:00,
2013-08-19 10:08:00,72.9,61.0,30.10,West,270,3.0,4.0,67,0.00,,,0.00,weatherlink.com 1.10,2013-08-19 14:08:00,
2013-08-19 10:23:00,73.7,62.0,30.11,SW,222,1.0,4.0,66,0.00,,,0.00,weatherlink.com 1.10,2013-08-19 14:23:00,
2013-08-19 10:39:00,75.3,62.0,30.11,SW,233,2.0,4.0,64,0.00,,,0.00,weatherlink.com 1.10,2013-08-19 14:39:00,
2013-08-19 10:54:00,75.6,62.0,30.11,West,272,1.0,5.0,63,0.00,,,0.00,weatherlink.com 1.10,2013-08-19 14:54:00,
2013-08-19 11:09:00,76.2,63.0,30.11,West,280,4.0,7.0,63,0.00,,,0.00,weatherlink.com 1.10,2013-08-19 15:09:00,
2013-08-19 11:24:00,77.1,63.0,30.11,SW,235,2.0,4.0,61,0.00,,,0.00,weatherlink.com 1.10,2013-08-19 15:24:00,
2013-08-19 11:39:00,77.9,62.0,30.10,WNW,302,0.0,5.0,59,0.00,,,0.00,weatherlink.com 1.10,2013-08-19 15:39:00,
2013-08-19 11:54:00,78.6,62.0,30.10,ENE,76,0.0,5.0,56,0.00,,,0.00,weatherlink.com 1.10,2013-08-19 15:54:00,
2013-08-19 12:09:00,79.1,62.0,30.09,WNW,298,3.0,4.0,56,0.00,,,0.00,weatherlink.com 1.10,2013-08-19 16:09:00,
2013-08-19 12:24:00,79.7,62.0,30.09,WNW,300,2.0,5.0,54,0.00,,,0.00,weatherlink.com 1.10,2013-08-19 16:24:00,
2013-08-19 12:39:00,80.1,61.0,30.08,NNW,345,2.0,5.0,53,0.00,,,0.00,weatherlink.com 1.10,2013-08-19 16:39:00,
2013-08-19 12:54:00,79.8,61.0,30.08,NNW,336,3.0,6.0,53,0.00,,,0.00,weatherlink.com 1.10,2013-08-19 16:54:00,
2013-08-19 13:09:00,79.7,61.0,30.08,NNE,25,1.0,7.0,53,0.00,,,0.00,weatherlink.com 1.10,2013-08-19 17:09:00,
2013-08-19 13:24:00,80.2,62.0,30.08,SW,236,3.0,6.0,54,0.00,,,0.00,weatherlink.com 1.10,2013-08-19 17:24:00,
2013-08-19 13:39:00,80.7,61.0,30.08,North,360,2.0,6.0,52,0.00,,,0.00,weatherlink.com 1.10,2013-08-19 17:39:00,
2013-08-19 13:54:00,81.7,62.0,30.08,SW,226,4.0,6.0,51,0.00,,,0.00,weatherlink.com 1.10,2013-08-19 17:54:00,
2013-08-19 14:09:00,82.3,60.0,30.07,NNE,18,5.0,7.0,47,0.00,,,0.00,weatherlink.com 1.10,2013-08-19 18:09:00,
2013-08-19 14:24:00,81.2,60.0,30.07,NNW,333,4.0,7.0,49,0.00,,,0.00,weatherlink.com 1.10,2013-08-19 18:24:00,
2013-08-19 14:39:00,80.9,60.0,30.07,NNE,20,2.0,3.0,50,0.00,,,0.00,weatherlink.com 1.10,2013-08-19 18:39:00,
2013-08-19 14:54:00,81.5,60.0,30.07,NNW,341,1.0,4.0,49,0.00,,,0.00,weatherlink.com 1.10,2013-08-19 18:54:00,
2013-08-19 15:09:00,81.7,59.0,30.07,NNW,328,1.0,5.0,47,0.00,,,0.00,weatherlink.com 1.10,2013-08-19 19:09:00,
2013-08-19 15:24:00,83.2,60.0,30.06,NNE,18,2.0,6.0,46,0.00,,,0.00,weatherlink.com 1.10,2013-08-19 19:24:00,
2013-08-19 15:39:00,83.9,62.0,30.06,WNW,288,3.0,5.0,48,0.00,,,0.00,weatherlink.com 1.10,2013-08-19 19:39:00,
2013-08-19 15:54:00,83.9,61.0,30.05,NNW,341,3.0,8.0,46,0.00,,,0.00,weatherlink.com 1.10,2013-08-19 19:54:00,
2013-08-19 16:09:00,84.0,61.0,30.05,East,80,1.0,3.0,46,0.00,,,0.00,weatherlink.com 1.10,2013-08-19 20:09:00,
2013-08-19 16:24:00,84.0,61.0,30.05,NNE,13,2.0,4.0,46,0.00,,,0.00,weatherlink.com 1.10,2013-08-19 20:24:00,
2013-08-19 16:39:00,83.0,61.0,30.05,ENE,67,4.0,6.0,47,0.00,,,0.00,weatherlink.com 1.10,2013-08-19 20:39:00,
2013-08-19 16:54:00,83.8,61.0,30.05,ENE,75,3.0,5.0,46,0.00,,,0.00,weatherlink.com 1.10,2013-08-19 20:54:00,
2013-08-19 17:09:00,84.7,61.0,30.04,West,270,2.0,4.0,45,0.00,,,0.00,weatherlink.com 1.10,2013-08-19 21:09:00,
2013-08-19 17:24:00,84.0,62.0,30.04,WNW,293,2.0,3.0,47,0.00,,,0.00,weatherlink.com 1.10,2013-08-19 21:24:00,
2013-08-19 17:39:00,82.8,62.0,30.04,WNW,290,2.0,4.0,49,0.00,,,0.00,weatherlink.com 1.10,2013-08-19 21:39:00,
2013-08-19 17:54:00,82.3,63.0,30.03,NNW,334,3.0,5.0,53,0.00,,,0.00,weatherlink.com 1.10,2013-08-19 21:54:00,
2013-08-19 18:09:00,82.5,64.0,30.03,NW,321,3.0,4.0,53,0.00,,,0.00,weatherlink.com 1.10,2013-08-19 22:09:00,
2013-08-19 18:24:00,82.7,62.0,30.03,NW,325,4.0,5.0,50,0.00,,,0.00,weatherlink.com 1.10,2013-08-19 22:24:00,
2013-08-19 18:39:00,82.4,63.0,30.03,NW,324,3.0,5.0,52,0.00,,,0.00,weatherlink.com 1.10,2013-08-19 22:39:00,
2013-08-19 18:54:00,82.1,65.0,30.03,NW,325,2.0,3.0,56,0.00,,,0.00,weatherlink.com 1.10,2013-08-19 22:54:00,
2013-08-19 19:09:00,81.1,63.0,30.03,NNW,330,1.0,3.0,55,0.00,,,0.00,weatherlink.com 1.10,2013-08-19 23:09:00,
2013-08-19 19:24:00,80.8,63.0,30.02,NNW,336,2.0,3.0,55,0.00,,,0.00,weatherlink.com 1.10,2013-08-19 23:24:00,
2013-08-19 19:39:00,80.4,63.0,30.02,NW,326,1.0,2.0,56,0.00,,,0.00,weatherlink.com 1.10,2013-08-19 23:39:00,
2013-08-19 19:54:00,80.3,66.0,30.02,NW,326,0.0,1.0,62,0.00,,,0.00,weatherlink.com 1.10,2013-08-19 23:54:00,
2013-08-19 20:10:00,78.9,65.0,30.02,NW,326,1.0,1.0,62,0.00,,,0.00,weatherlink.com 1.10,2013-08-20 00:10:00,
2013-08-19 20:25:00,78.4,64.0,30.03,NNE,13,0.0,2.0,62,0.00,,,0.00,weatherlink.com 1.10,2013-08-20 00:25:00,
2013-08-19 20:40:00,77.4,65.0,30.03,NE,46,0.0,1.0,66,0.00,,,0.00,weatherlink.com 1.10,2013-08-20 00:40:00,
2013-08-19 20:55:00,75.7,66.0,30.03,ENE,67,0.0,1.0,71,0.00,,,0.00,weatherlink.com 1.10,2013-08-20 00:55:00,
2013-08-19 21:10:00,74.4,65.0,30.03,ENE,66,0.0,0.0,73,0.00,,,0.00,weatherlink.com 1.10,2013-08-20 01:10:00,
2013-08-19 21:25:00,73.8,65.0,30.03,ENE,66,0.0,0.0,75,0.00,,,0.00,weatherlink.com 1.10,2013-08-20 01:25:00,
2013-08-19 21:40:00,72.6,65.0,30.04,SSE,159,2.0,3.0,77,0.00,,,0.00,weatherlink.com 1.10,2013-08-20 01:40:00,
2013-08-19 21:55:00,72.6,65.0,30.04,SSE,153,0.0,1.0,77,0.00,,,0.00,weatherlink.com 1.10,2013-08-20 01:55:00,
2013-08-19 22:10:00,72.2,65.0,30.04,SSE,154,0.0,0.0,78,0.00,,,0.00,weatherlink.com 1.10,2013-08-20 02:10:00,
2013-08-19 22:25:00,71.2,64.0,30.04,SSE,153,0.0,0.0,79,0.00,,,0.00,weatherlink.com 1.10,2013-08-20 02:25:00,
2013-08-19 22:40:00,70.5,64.0,30.04,SSE,153,0.0,0.0,80,0.00,,,0.00,weatherlink.com 1.10,2013-08-20 02:40:00,
2013-08-19 22:55:00,70.8,65.0,30.05,SSE,148,1.0,1.0,82,0.00,,,0.00,weatherlink.com 1.10,2013-08-20 02:55:00,
2013-08-19 23:10:00,69.6,64.0,30.05,SE,128,1.0,2.0,82,0.00,,,0.00,weatherlink.com 1.10,2013-08-20 03:10:00,
2013-08-19 23:25:00,69.0,64.0,30.05,SE,139,0.0,1.0,83,0.00,,,0.00,weatherlink.com 1.10,2013-08-20 03:25:00,
2013-08-19 23:40:00,69.2,64.0,30.05,SE,140,0.0,0.0,84,0.00,,,0.00,weatherlink.com 1.10,2013-08-20 03:40:00,
2013-08-19 23:55:00,69.2,64.0,30.06,SE,139,0.0,0.0,83,0.00,,,0.00,weatherlink.com 1.10,2013-08-20 03:55:00,